Time;durP1;ratioP1;P1;durP2;ratioP2;P2;SDS_P1;SDS_P2;PMS_P1;PMS_P2;Temp;Humidity;BMP_temperature;BMP_pressure;BME280_temperature;BME280_humidity;BME280_pressure;Samples;Min_cycle;Max_cycle;Signal;HPM_P1;HPM_P2
2021/12/05 00:17:03;;;;;;;;;;;;;;;;;;5102164;28;1226;-75
2021/12/05 00:22:31;;;;;;;;;;;;;;;;;;5085250;28;1068;-75
2021/12/05 00:24:59;;;;;;;;;;;;;;;;;;5059923;28;1341;-75
2021/12/05 00:27:31;;;;;;;;;;;;;;;;;;5066376;28;1151;-75
2021/12/05 00:33:27;;;;;;;;;;;;;;;;;;5048976;28;1906;-75
2021/12/05 00:39:32;;;;;;;;;;;;;;;;;;5082039;28;1007;-74
2021/12/05 01:00:30;;;;;;;;;;;;;;;;;;5100854;28;1009;-74
2021/12/05 01:09:16;;;;;;;;;;;;;;;;;;5007779;28;1212;-74
2021/12/05 01:14:27;;;;;;;;;;;;;;;;;;5107065;28;1071;-74
2021/12/05 01:16:47;;;;;;;;;;;;;;;;;;5102870;28;1063;-74
2021/12/05 01:19:13;;;;;;;;;;;;;;;;;;5053865;28;1423;-75
2021/12/05 01:21:40;;;;;;;;;;;;;;;;;;5083622;28;1333;-74
2021/12/05 01:24:41;;;;;;;;;;;;;;;;;;5063757;28;1358;-74
2021/12/05 01:34:58;;;;;;;;;;;;;;;;;;5082441;28;1100;-74
2021/12/05 01:39:59;;;;;;;;;;;;;;;;;;5080988;28;1148;-75
2021/12/05 02:29:20;;;;;;;;;;;;;;;;;;5108553;28;1024;-74
2021/12/05 02:35:31;;;;;;;;;;;;;;;;;;5105850;28;1163;-73
2021/12/05 02:41:15;;;;;;;;;;;;;;;;;;5036081;28;1429;-73
2021/12/05 02:43:46;;;;;;;;;;;;;;;;;;5062392;28;1683;-73
2021/12/05 02:46:14;;;;;;;;;;;;;;;;;;5051397;28;1100;-74
2021/12/05 02:48:40;;;;;;;;;;;;;;;;;;5069635;28;1487;-74
2021/12/05 02:51:12;;;;;;;;;;;;;;;;;;5065178;28;1049;-74
2021/12/05 02:53:42;;;;;;;;;;;;;;;;;;5063682;28;2005;-74
2021/12/05 02:56:10;;;;;;;;;;;;;;;;;;5063986;28;1433;-74
2021/12/05 02:58:49;;;;;;;;;;;;;;;;;;5084388;28;1168;-73
2021/12/05 03:01:21;;;;;;;;;;;;;;;;;;5065236;28;1668;-74
2021/12/05 03:03:46;;;;;;;;;;;;;;;;;;5066737;28;1365;-75
2021/12/05 03:06:20;;;;;;;;;;;;;;;;;;5047428;28;1393;-76
2021/12/05 03:08:47;;;;;;;;;;;;;;;;;;5062866;28;1270;-73
2021/12/05 03:11:12;;;;;;;;;;;;;;;;;;5078238;28;1151;-73
2021/12/05 03:13:40;;;;;;;;;;;;;;;;;;5070507;28;1972;-73
2021/12/05 03:16:05;;;;;;;;;;;;;;;;;;5074189;28;1140;-73
2021/12/05 03:18:31;;;;;;;;;;;;;;;;;;5067994;28;1408;-73
2021/12/05 03:20:58;;;;;;;;;;;;;;;;;;5063790;28;1183;-73
2021/12/05 03:23:24;;;;;;;;;;;;;;;;;;5062728;28;1219;-74
2021/12/05 03:25:49;;;;;;;;;;;;;;;;;;5064676;28;1195;-73
2021/12/05 03:28:14;;;;;;;;;;;;;;;;;;5048402;28;1330;-73
2021/12/05 03:30:40;;;;;;;;;;;;;;;;;;5047043;28;1261;-74
2021/12/05 03:33:05;;;;;;;;;;;;;;;;;;5056656;28;1894;-73
2021/12/05 03:35:31;;;;;;;;;;;;;;;;;;5101065;28;1151;-74
2021/12/05 03:37:58;;;;;;;;;;;;;;;;;;5084729;28;1198;-74
2021/12/05 03:40:24;;;;;;;;;;;;;;;;;;5060353;28;1352;-74
2021/12/05 03:42:50;;;;;;;;;;;;;;;;;;5086855;28;1197;-74
2021/12/05 03:45:18;;;;;;;;;;;;;;;;;;5062667;28;1230;-74
2021/12/05 03:47:43;;;;;;;;;;;;;;;;;;5104058;28;1202;-74
2021/12/05 03:50:10;;;;;;;;;;;;;;;;;;5084895;28;1115;-73
2021/12/05 03:52:35;;;;;;;;;;;;;;;;;;5083735;28;1961;-74
2021/12/05 03:55:00;;;;;;;;;;;;;;;;;;5072703;28;1219;-74
2021/12/05 03:57:26;;;;;;;;;;;;;;;;;;5065243;28;1393;-74
2021/12/05 03:59:51;;;;;;;;;;;;;;;;;;5079721;28;1215;-74
2021/12/05 04:02:16;;;;;;;;;;;;;;;;;;5062940;28;1170;-74
2021/12/05 04:04:41;;;;;;;;;;;;;;;;;;5064144;28;1168;-74
2021/12/05 04:07:07;;;;;;;;;;;;;;;;;;5063406;28;1178;-74
2021/12/05 04:09:33;;;;;;;;;;;;;;;;;;5081364;28;1104;-74
2021/12/05 04:12:01;;;;;;;;;;;;;;;;;;5060661;28;1890;-74
2021/12/05 04:14:38;;;;;;;;;;;;;;;;;;5061921;28;1101;-73
2021/12/05 04:17:05;;;;;;;;;;;;;;;;;;5060348;28;1474;-74
2021/12/05 04:19:31;;;;;;;;;;;;;;;;;;5067431;28;1458;-74
2021/12/05 04:21:57;;;;;;;;;;;;;;;;;;5066285;28;1151;-74
2021/12/05 04:24:23;;;;;;;;;;;;;;;;;;5061963;28;1370;-74
2021/12/05 04:26:48;;;;;;;;;;;;;;;;;;5080437;28;1152;-72
2021/12/05 04:29:13;;;;;;;;;;;;;;;;;;5076536;28;1057;-73
2021/12/05 04:31:40;;;;;;;;;;;;;;;;;;5048978;28;1889;-74
2021/12/05 04:34:05;;;;;;;;;;;;;;;;;;5081013;28;1155;-74
2021/12/05 04:36:31;;;;;;;;;;;;;;;;;;5065977;28;1449;-74
2021/12/05 04:38:56;;;;;;;;;;;;;;;;;;5061954;28;1422;-75
2021/12/05 04:41:23;;;;;;;;;;;;;;;;;;5077830;28;1049;-73
2021/12/05 04:43:49;;;;;;;;;;;;;;;;;;5063130;28;1381;-74
2021/12/05 04:46:16;;;;;;;;;;;;;;;;;;5079746;28;1073;-73
2021/12/05 04:48:43;;;;;;;;;;;;;;;;;;5063363;28;1614;-73
2021/12/05 04:51:09;;;;;;;;;;;;;;;;;;5043601;28;1314;-74
2021/12/05 04:53:34;;;;;;;;;;;;;;;;;;5061171;28;1971;-74
2021/12/05 04:56:00;;;;;;;;;;;;;;;;;;5078311;28;1222;-74
2021/12/05 04:58:25;;;;;;;;;;;;;;;;;;5072967;28;1155;-74
2021/12/05 05:00:52;;;;;;;;;;;;;;;;;;5100223;28;1064;-74
2021/12/05 05:03:18;;;;;;;;;;;;;;;;;;5100612;28;1258;-74
2021/12/05 05:05:51;;;;;;;;;;;;;;;;;;5060446;28;1077;-74
2021/12/05 05:08:17;;;;;;;;;;;;;;;;;;5076741;28;1103;-74
2021/12/05 05:10:42;;;;;;;;;;;;;;;;;;5062082;28;1215;-74
2021/12/05 05:13:08;;;;;;;;;;;;;;;;;;5064132;28;1929;-74
2021/12/05 05:15:33;;;;;;;;;;;;;;;;;;5079261;28;1198;-74
2021/12/05 05:18:00;;;;;;;;;;;;;;;;;;5103270;28;1222;-74
2021/12/05 05:23:35;;;;;;;;;;;;;;;;;;5099583;28;1027;-74
2021/12/05 05:45:01;;;;;;;;;;;;;;;;;;5077818;28;1196;-74
2021/12/05 05:49:59;;;;;;;;;;;;;;;;;;5103517;28;1139;-74
2021/12/05 05:52:25;;;;;;;;;;;;;;;;;;5083090;28;1917;-74
2021/12/05 05:54:51;;;;;;;;;;;;;;;;;;5096421;28;1159;-74
2021/12/05 05:57:27;;;;;;;;;;;;;;;;;;5065418;28;1222;-74
2021/12/05 06:00:05;;;;;;;;;;;;;;;;;;5099427;28;1090;-75
2021/12/05 06:05:17;;;;;;;;;;;;;;;;;;5098862;28;1036;-74
2021/12/05 06:07:44;;;;;;;;;;;;;;;;;;5102425;28;1222;-75
2021/12/05 06:10:10;;;;;;;;;;;;;;;;;;5075036;28;1348;-75
2021/12/05 06:12:36;;;;;;;;;;;;;;;;;;5065372;28;1897;-75
2021/12/05 06:15:02;;;;;;;;;;;;;;;;;;5061743;28;1314;-75
2021/12/05 06:17:28;;;;;;;;;;;;;;;;;;5081478;28;1206;-75
2021/12/05 06:19:54;;;;;;;;;;;;;;;;;;5048411;28;1176;-74
2021/12/05 06:22:19;;;;;;;;;;;;;;;;;;5062945;28;1364;-75
2021/12/05 06:24:46;;;;;;;;;;;;;;;;;;5094071;28;1131;-74
2021/12/05 06:27:12;;;;;;;;;;;;;;;;;;5086201;28;1296;-75
2021/12/05 06:29:45;;;;;;;;;;;;;;;;;;5102364;28;1203;-74
2021/12/05 06:37:34;;;;;;;;;;;;;;;;;;5088775;28;1107;-73
2021/12/05 06:40:16;;;;;;;;;;;;;;;;;;5100743;28;1103;-73
2021/12/05 06:48:00;;;;;;;;;;;;;;;;;;5092637;28;1085;-74
2021/12/05 06:50:25;;;;;;;;;;;;;;;;;;5068018;28;1196;-74
2021/12/05 06:52:51;;;;;;;;;;;;;;;;;;5088521;28;1914;-74
2021/12/05 06:55:16;;;;;;;;;;;;;;;;;;5099137;28;1131;-74
2021/12/05 06:57:42;;;;;;;;;;;;;;;;;;5102050;28;1230;-74
2021/12/05 07:00:09;;;;;;;;;;;;;;;;;;5063438;28;1203;-74
2021/12/05 07:02:35;;;;;;;;;;;;;;;;;;5067566;28;1128;-74
2021/12/05 07:07:32;;;;;;;;;;;;;;;;;;5083964;28;1119;-74
2021/12/05 07:09:58;;;;;;;;;;;;;;;;;;5080631;28;1171;-73
2021/12/05 07:13:06;;;;;;;;;;;;;;;;;;5084436;28;1965;-74
2021/12/05 07:26:18;;;;;;;;;;;;;;;;;;5063930;28;1075;-74
2021/12/05 07:42:24;;;;;;;;;;;;;;;;;;5081263;28;1253;-75
2021/12/05 07:44:51;;;;;;;;;;;;;;;;;;5084277;28;1283;-74
2021/12/05 07:47:19;;;;;;;;;;;;;;;;;;5076626;28;1459;-74
2021/12/05 07:49:47;;;;;;;;;;;;;;;;;;5063839;28;1609;-74
2021/12/05 07:52:16;;;;;;;;;;;;;;;;;;5083674;28;1918;-75
2021/12/05 07:54:46;;;;;;;;;;;;;;;;;;5083516;28;1124;-74
2021/12/05 07:57:20;;;;;;;;;;;;;;;;;;5071016;28;1155;-74
2021/12/05 08:16:13;;;;;;;;;;;;;;;;;;5096575;28;1057;-74
2021/12/05 08:18:39;;;;;;;;;;;;;;;;;;5083112;28;1479;-75
2021/12/05 08:21:06;;;;;;;;;;;;;;;;;;5068581;28;1218;-75
2021/12/05 08:23:32;;;;;;;;;;;;;;;;;;5083082;28;1276;-74
2021/12/05 08:26:10;;;;;;;;;;;;;;;;;;5098248;28;1128;-74
2021/12/05 08:39:48;;;;;;;;;;;;;;;;;;5080889;28;1013;-75
2021/12/05 08:42:41;;;;;;;;;;;;;;;;;;5078859;28;1167;-75
2021/12/05 09:20:47;;;;;;;;;;;;;;;;;;5090153;28;1092;-74
2021/12/05 09:23:17;;;;;;;;;;;;;;;;;;5086761;28;1232;-73
2021/12/05 09:29:03;;;;;;;;;;;;;;;;;;5086480;28;1135;-74
2021/12/05 09:31:17;;;;;;;;;;;;;;;;;;5084155;28;1192;-74
2021/12/05 10:14:57;;;;;;;;;;;;;;;;;;5080771;28;1048;-74
2021/12/05 10:36:19;;;;;;;;;;;;;;;;;;5028903;28;1157;-75
2021/12/05 10:38:51;;;;;;;;;;;;;;;;;;5061193;28;1215;-75
2021/12/05 10:41:35;;;;;;;;;;;;;;;;;;5083321;28;1218;-75
2021/12/05 10:44:03;;;;;;;;;;;;;;;;;;5082960;28;1080;-75
2021/12/05 10:46:29;;;;;;;;;;;;;;;;;;5065791;28;1219;-75
2021/12/05 10:49:13;;;;;;;;;;;;;;;;;;5062891;28;1160;-75
2021/12/05 10:51:41;;;;;;;;;;;;;;;;;;5079274;28;1905;-74
2021/12/05 10:54:08;;;;;;;;;;;;;;;;;;5080191;28;1163;-75
2021/12/05 10:56:35;;;;;;;;;;;;;;;;;;5080209;28;1175;-76
2021/12/05 10:59:08;;;;;;;;;;;;;;;;;;5083223;28;1061;-75
2021/12/05 11:01:36;;;;;;;;;;;;;;;;;;5082841;28;1108;-75
2021/12/05 11:04:04;;;;;;;;;;;;;;;;;;5069971;28;1226;-76
2021/12/05 11:06:35;;;;;;;;;;;;;;;;;;5070188;28;1171;-75
2021/12/05 11:09:02;;;;;;;;;;;;;;;;;;5082923;28;1152;-75
2021/12/05 11:11:29;;;;;;;;;;;;;;;;;;5059203;28;1100;-75
2021/12/05 11:13:54;;;;;;;;;;;;;;;;;;5072718;28;1959;-75
2021/12/05 11:16:38;;;;;;;;;;;;;;;;;;5052855;28;1355;-74
2021/12/05 11:19:15;;;;;;;;;;;;;;;;;;5084148;28;1116;-75
2021/12/05 11:21:47;;;;;;;;;;;;;;;;;;5063357;28;1314;-74
2021/12/05 11:24:12;;;;;;;;;;;;;;;;;;5046180;28;1206;-74
2021/12/05 11:26:39;;;;;;;;;;;;;;;;;;5079220;28;1091;-75
2021/12/05 11:29:04;;;;;;;;;;;;;;;;;;5064117;28;1286;-74
2021/12/05 11:31:31;;;;;;;;;;;;;;;;;;5066247;28;1308;-74
2021/12/05 11:33:57;;;;;;;;;;;;;;;;;;5066792;28;1955;-74
2021/12/05 11:36:24;;;;;;;;;;;;;;;;;;5066894;28;1215;-74
2021/12/05 11:38:49;;;;;;;;;;;;;;;;;;5060879;28;1131;-74
2021/12/05 11:41:20;;;;;;;;;;;;;;;;;;5062771;28;1171;-74
2021/12/05 11:43:47;;;;;;;;;;;;;;;;;;5060661;28;1394;-74
2021/12/05 11:46:13;;;;;;;;;;;;;;;;;;5065034;28;1206;-74
2021/12/05 11:48:56;;;;;;;;;;;;;;;;;;5080534;28;1107;-74
2021/12/05 11:51:30;;;;;;;;;;;;;;;;;;5090807;28;1156;-74
2021/12/05 11:53:55;;;;;;;;;;;;;;;;;;5080849;28;1973;-74
2021/12/05 11:56:35;;;;;;;;;;;;;;;;;;5082440;28;1227;-75
2021/12/05 11:59:12;;;;;;;;;;;;;;;;;;5063446;28;1116;-75
2021/12/05 12:01:50;;;;;;;;;;;;;;;;;;5081686;28;1192;-75
2021/12/05 12:04:17;;;;;;;;;;;;;;;;;;5067013;28;1404;-73
2021/12/05 12:06:43;;;;;;;;;;;;;;;;;;5062076;28;1406;-75
2021/12/05 12:09:08;;;;;;;;;;;;;;;;;;5086016;28;1260;-76
2021/12/05 12:11:34;;;;;;;;;;;;;;;;;;5107880;28;1246;-76
2021/12/05 12:14:00;;;;;;;;;;;;;;;;;;5082785;28;1961;-76
2021/12/05 12:16:26;;;;;;;;;;;;;;;;;;5086614;28;1159;-75
2021/12/05 12:18:52;;;;;;;;;;;;;;;;;;5084019;28;1179;-75
2021/12/05 12:21:26;;;;;;;;;;;;;;;;;;5102489;28;1155;-75
2021/12/05 12:23:54;;;;;;;;;;;;;;;;;;5096917;28;1199;-75
2021/12/05 12:26:20;;;;;;;;;;;;;;;;;;5085787;28;1202;-76
2021/12/05 12:28:46;;;;;;;;;;;;;;;;;;5096056;28;1156;-75
2021/12/05 12:31:25;;;;;;;;;;;;;;;;;;5073483;28;1254;-74
2021/12/05 12:33:55;;;;;;;;;;;;;;;;;;5080083;28;1890;-73
2021/12/05 12:36:41;;;;;;;;;;;;;;;;;;5063406;28;1203;-72
2021/12/05 12:39:26;;;;;;;;;;;;;;;;;;5068454;28;1263;-73
2021/12/05 12:42:01;;;;;;;;;;;;;;;;;;5096123;28;1267;-74
2021/12/05 12:44:26;;;;;;;;;;;;;;;;;;5099500;28;1206;-74
2021/12/05 12:46:56;;;;;;;;;;;;;;;;;;5099681;28;1158;-74
2021/12/05 12:49:23;;;;;;;;;;;;;;;;;;5101573;28;1072;-74
2021/12/05 12:51:57;;;;;;;;;;;;;;;;;;5080433;28;1917;-74
2021/12/05 12:54:30;;;;;;;;;;;;;;;;;;5091523;28;1171;-74
2021/12/05 12:57:05;;;;;;;;;;;;;;;;;;5075941;28;1048;-75
2021/12/05 12:59:31;;;;;;;;;;;;;;;;;;5090334;28;1083;-76
2021/12/05 13:10:09;;;;;;;;;;;;;;;;;;5076731;28;1103;-73
2021/12/05 13:12:34;;;;;;;;;;;;;;;;;;5076672;28;1906;-74
2021/12/05 13:15:07;;;;;;;;;;;;;;;;;;5099025;28;1047;-74
2021/12/05 13:17:59;;;;;;;;;;;;;;;;;;5067468;28;1207;-74
2021/12/05 13:20:42;;;;;;;;;;;;;;;;;;5078768;28;1293;-74
2021/12/05 13:23:10;;;;;;;;;;;;;;;;;;5065711;28;1124;-72
2021/12/05 13:25:55;;;;;;;;;;;;;;;;;;5083107;28;1087;-73
2021/12/05 13:28:28;;;;;;;;;;;;;;;;;;5078537;28;1436;-76
2021/12/05 13:30:53;;;;;;;;;;;;;;;;;;5079955;28;1203;-75
2021/12/05 13:33:28;;;;;;;;;;;;;;;;;;5103716;28;1893;-75
2021/12/05 13:35:57;;;;;;;;;;;;;;;;;;5073456;28;1390;-76
2021/12/05 13:38:30;;;;;;;;;;;;;;;;;;5086281;28;1187;-75
2021/12/05 13:41:08;;;;;;;;;;;;;;;;;;5099409;28;1504;-75
2021/12/05 13:43:34;;;;;;;;;;;;;;;;;;5084101;28;1275;-75
2021/12/05 13:46:00;;;;;;;;;;;;;;;;;;5079965;28;1107;-75
2021/12/05 13:48:27;;;;;;;;;;;;;;;;;;5065686;28;1381;-78
2021/12/05 13:51:00;;;;;;;;;;;;;;;;;;5077679;28;1321;-76
2021/12/05 13:53:37;;;;;;;;;;;;;;;;;;5080973;28;1933;-78
2021/12/05 13:56:11;;;;;;;;;;;;;;;;;;5090582;28;1080;-76
2021/12/05 13:58:40;;;;;;;;;;;;;;;;;;5053337;28;1036;-77
2021/12/05 14:01:24;;;;;;;;;;;;;;;;;;5055547;28;1215;-77
2021/12/05 14:04:08;;;;;;;;;;;;;;;;;;5071428;28;1203;-79
2021/12/05 14:06:57;;;;;;;;;;;;;;;;;;5090084;28;1254;-75
2021/12/05 14:09:36;;;;;;;;;;;;;;;;;;5080111;28;1183;-75
2021/12/05 14:12:08;;;;;;;;;;;;;;;;;;5079951;28;1946;-75
2021/12/05 14:14:41;;;;;;;;;;;;;;;;;;5075520;28;1191;-76
2021/12/05 14:17:12;;;;;;;;;;;;;;;;;;5074062;28;1128;-75
2021/12/05 14:19:39;;;;;;;;;;;;;;;;;;5059546;28;1347;-77
2021/12/05 14:22:05;;;;;;;;;;;;;;;;;;5060448;28;1286;-76
2021/12/05 14:24:34;;;;;;;;;;;;;;;;;;5077304;28;1338;-76
2021/12/05 14:27:03;;;;;;;;;;;;;;;;;;5070348;28;1310;-77
2021/12/05 14:29:29;;;;;;;;;;;;;;;;;;5096888;28;1155;-78
2021/12/05 14:31:58;;;;;;;;;;;;;;;;;;5078124;28;1910;-74
2021/12/05 14:34:24;;;;;;;;;;;;;;;;;;5082946;28;1246;-74
2021/12/05 14:36:58;;;;;;;;;;;;;;;;;;5080407;28;1219;-73
2021/12/05 14:39:36;;;;;;;;;;;;;;;;;;5079334;28;1387;-74
2021/12/05 14:42:10;;;;;;;;;;;;;;;;;;5077120;28;1267;-75
2021/12/05 14:44:36;;;;;;;;;;;;;;;;;;5061518;28;1293;-75
2021/12/05 14:47:04;;;;;;;;;;;;;;;;;;5083543;28;1290;-74
2021/12/05 14:49:32;;;;;;;;;;;;;;;;;;5081011;28;1163;-75
2021/12/05 14:51:57;;;;;;;;;;;;;;;;;;5064672;28;1987;-74
2021/12/05 14:54:30;;;;;;;;;;;;;;;;;;5084804;28;1117;-74
2021/12/05 14:56:56;;;;;;;;;;;;;;;;;;5062687;28;1152;-74
2021/12/05 14:59:24;;;;;;;;;;;;;;;;;;5065461;28;1128;-74
2021/12/05 15:01:55;;;;;;;;;;;;;;;;;;5082394;28;1231;-74
2021/12/05 15:04:26;;;;;;;;;;;;;;;;;;5085177;28;1195;-74
2021/12/05 15:06:52;;;;;;;;;;;;;;;;;;5062148;28;1302;-74
2021/12/05 15:09:17;;;;;;;;;;;;;;;;;;5050927;28;1396;-73
2021/12/05 15:11:57;;;;;;;;;;;;;;;;;;5060747;28;1267;-73
2021/12/05 15:14:23;;;;;;;;;;;;;;;;;;5062710;28;1175;-73
2021/12/05 15:16:54;;;;;;;;;;;;;;;;;;5050048;28;1433;-74
2021/12/05 15:19:19;;;;;;;;;;;;;;;;;;5066972;28;1100;-74
2021/12/05 15:21:44;;;;;;;;;;;;;;;;;;5048620;28;1200;-74
2021/12/05 15:24:13;;;;;;;;;;;;;;;;;;5067386;28;1292;-74
2021/12/05 15:26:39;;;;;;;;;;;;;;;;;;5043232;28;1324;-74
2021/12/05 15:29:04;;;;;;;;;;;;;;;;;;5062938;28;1397;-74
2021/12/05 15:31:33;;;;;;;;;;;;;;;;;;5048726;28;1250;-74
2021/12/05 15:33:59;;;;;;;;;;;;;;;;;;5064563;28;1964;-75
2021/12/05 15:36:29;;;;;;;;;;;;;;;;;;5085632;28;1274;-75
2021/12/05 15:38:55;;;;;;;;;;;;;;;;;;5083421;28;1180;-76
2021/12/05 15:41:23;;;;;;;;;;;;;;;;;;5042963;28;1303;-75
2021/12/05 15:43:48;;;;;;;;;;;;;;;;;;5067203;28;1072;-74
2021/12/05 15:46:14;;;;;;;;;;;;;;;;;;5062822;28;1353;-74
2021/12/05 15:48:40;;;;;;;;;;;;;;;;;;5084021;28;1203;-74
2021/12/05 15:51:10;;;;;;;;;;;;;;;;;;5047579;28;1353;-74
2021/12/05 15:53:35;;;;;;;;;;;;;;;;;;5068104;28;1934;-74
2021/12/05 15:56:03;;;;;;;;;;;;;;;;;;5038551;28;1311;-74
2021/12/05 15:58:31;;;;;;;;;;;;;;;;;;5066480;28;1215;-76
2021/12/05 16:01:09;;;;;;;;;;;;;;;;;;5075102;28;1067;-75
2021/12/05 16:03:39;;;;;;;;;;;;;;;;;;5095469;28;1282;-75
2021/12/05 16:06:05;;;;;;;;;;;;;;;;;;5082059;28;1194;-74
2021/12/05 16:08:31;;;;;;;;;;;;;;;;;;5085904;28;1172;-77
2021/12/05 16:10:59;;;;;;;;;;;;;;;;;;5070675;28;1253;-77
2021/12/05 16:13:41;;;;;;;;;;;;;;;;;;5066164;28;1953;-75
2021/12/05 16:16:14;;;;;;;;;;;;;;;;;;5059853;28;1467;-77
2021/12/05 16:18:41;;;;;;;;;;;;;;;;;;5081578;28;1321;-75
2021/12/05 16:21:17;;;;;;;;;;;;;;;;;;5082761;28;1008;-76
2021/12/05 16:23:42;;;;;;;;;;;;;;;;;;5084518;28;1267;-75
2021/12/05 16:26:10;;;;;;;;;;;;;;;;;;5090214;28;1215;-76
2021/12/05 16:28:40;;;;;;;;;;;;;;;;;;5104068;28;1131;-76
2021/12/05 16:31:08;;;;;;;;;;;;;;;;;;5061028;28;1187;-76
2021/12/05 16:33:34;;;;;;;;;;;;;;;;;;5083485;28;1939;-78
2021/12/05 16:36:00;;;;;;;;;;;;;;;;;;5069912;28;1250;-79
2021/12/05 16:38:35;;;;;;;;;;;;;;;;;;5104231;28;1179;-80
2021/12/05 16:41:03;;;;;;;;;;;;;;;;;;5091617;28;1199;-80
2021/12/05 16:43:29;;;;;;;;;;;;;;;;;;5084725;28;1150;-79
2021/12/05 16:45:57;;;;;;;;;;;;;;;;;;5059256;28;1250;-79
2021/12/05 16:48:22;;;;;;;;;;;;;;;;;;5063018;28;1229;-80
2021/12/05 16:50:48;;;;;;;;;;;;;;;;;;5079282;28;1017;-79
2021/12/05 16:53:14;;;;;;;;;;;;;;;;;;5073002;28;1913;-79
2021/12/05 16:55:44;;;;;;;;;;;;;;;;;;5041939;28;1513;-76
2021/12/05 16:58:17;;;;;;;;;;;;;;;;;;5055825;28;1268;-77
2021/12/05 17:00:44;;;;;;;;;;;;;;;;;;5067431;28;1304;-77
2021/12/05 17:03:15;;;;;;;;;;;;;;;;;;5051420;28;1017;-77
2021/12/05 17:05:43;;;;;;;;;;;;;;;;;;5055730;28;1176;-76
2021/12/05 17:08:19;;;;;;;;;;;;;;;;;;5051771;28;1317;-77
2021/12/05 17:11:00;;;;;;;;;;;;;;;;;;5069333;28;1184;-76
2021/12/05 17:13:26;;;;;;;;;;;;;;;;;;5064674;28;1949;-76
2021/12/05 17:15:53;;;;;;;;;;;;;;;;;;5061337;28;1120;-77
2021/12/05 17:18:23;;;;;;;;;;;;;;;;;;5049556;28;1251;-77
2021/12/05 17:20:58;;;;;;;;;;;;;;;;;;5051245;28;1215;-78
2021/12/05 17:23:25;;;;;;;;;;;;;;;;;;5061631;28;1298;-76
2021/12/05 17:25:53;;;;;;;;;;;;;;;;;;5046692;28;1289;-77
2021/12/05 17:28:31;;;;;;;;;;;;;;;;;;5050641;28;1289;-77
2021/12/05 17:30:58;;;;;;;;;;;;;;;;;;5052031;28;1151;-78
2021/12/05 17:33:33;;;;;;;;;;;;;;;;;;5073259;28;1886;-79
2021/12/05 17:36:12;;;;;;;;;;;;;;;;;;5073431;28;1256;-79
2021/12/05 17:38:38;;;;;;;;;;;;;;;;;;5075128;28;1183;-77
2021/12/05 17:41:04;;;;;;;;;;;;;;;;;;5061784;28;1187;-78
2021/12/05 17:43:29;;;;;;;;;;;;;;;;;;5051411;28;1163;-79
2021/12/05 17:45:56;;;;;;;;;;;;;;;;;;5036431;28;1162;-79
2021/12/05 17:48:21;;;;;;;;;;;;;;;;;;5070592;28;1194;-79
2021/12/05 17:50:50;;;;;;;;;;;;;;;;;;5032486;28;1178;-77
2021/12/05 17:53:16;;;;;;;;;;;;;;;;;;5056845;28;1971;-78
2021/12/05 17:55:46;;;;;;;;;;;;;;;;;;5052373;28;1084;-79
2021/12/05 17:58:21;;;;;;;;;;;;;;;;;;5066564;28;1222;-78
2021/12/05 18:00:58;;;;;;;;;;;;;;;;;;5057971;28;1210;-78
2021/12/05 18:03:24;;;;;;;;;;;;;;;;;;5063091;28;1079;-79
2021/12/05 18:05:49;;;;;;;;;;;;;;;;;;5049018;28;1120;-79
2021/12/05 18:08:17;;;;;;;;;;;;;;;;;;5056944;28;1203;-78
2021/12/05 18:10:57;;;;;;;;;;;;;;;;;;5060533;28;1020;-77
2021/12/05 18:13:24;;;;;;;;;;;;;;;;;;5048476;28;1907;-78
2021/12/05 18:15:58;;;;;;;;;;;;;;;;;;5042463;28;1145;-78
2021/12/05 18:18:25;;;;;;;;;;;;;;;;;;5051093;28;1357;-78
2021/12/05 18:20:50;;;;;;;;;;;;;;;;;;5049545;28;1088;-78
2021/12/05 18:23:16;;;;;;;;;;;;;;;;;;5070697;28;1141;-80
2021/12/05 18:25:42;;;;;;;;;;;;;;;;;;5067759;28;1159;-79
2021/12/05 18:28:08;;;;;;;;;;;;;;;;;;5031306;28;1354;-76
2021/12/05 18:30:34;;;;;;;;;;;;;;;;;;5054769;28;1354;-77
2021/12/05 18:33:01;;;;;;;;;;;;;;;;;;5051376;28;1943;-80
2021/12/05 18:35:31;;;;;;;;;;;;;;;;;;5053464;28;1145;-78
2021/12/05 18:37:57;;;;;;;;;;;;;;;;;;5053100;28;1195;-78
2021/12/05 18:40:23;;;;;;;;;;;;;;;;;;5049366;28;1333;-79
2021/12/05 18:42:48;;;;;;;;;;;;;;;;;;5073542;28;1195;-79
2021/12/05 18:45:17;;;;;;;;;;;;;;;;;;5082491;28;1199;-79
2021/12/05 18:47:42;;;;;;;;;;;;;;;;;;5063266;28;1208;-78
2021/12/05 18:50:08;;;;;;;;;;;;;;;;;;5080580;28;1195;-78
2021/12/05 18:52:35;;;;;;;;;;;;;;;;;;5066741;28;1930;-78
2021/12/05 18:55:03;;;;;;;;;;;;;;;;;;5082912;28;1194;-78
2021/12/05 18:57:28;;;;;;;;;;;;;;;;;;5068641;28;1296;-78
2021/12/05 19:00:31;;;;;;;;;;;;;;;;;;5064977;28;1402;-78
2021/12/05 19:05:48;;;;;;;;;;;;;;;;;;5084295;28;1334;-78
2021/12/05 19:13:23;;;;;;;;;;;;;;;;;;5083979;28;1894;-77
2021/12/05 19:15:49;;;;;;;;;;;;;;;;;;5091200;28;1182;-78
2021/12/05 19:18:15;;;;;;;;;;;;;;;;;;5104560;28;1116;-78
2021/12/05 19:20:43;;;;;;;;;;;;;;;;;;5095104;28;1191;-78
2021/12/05 19:23:09;;;;;;;;;;;;;;;;;;5067233;28;1462;-78
2021/12/05 19:25:36;;;;;;;;;;;;;;;;;;5061523;28;1166;-76
2021/12/05 19:28:02;;;;;;;;;;;;;;;;;;5083615;28;1072;-78
2021/12/05 19:30:33;;;;;;;;;;;;;;;;;;5065013;28;1250;-77
2021/12/05 19:32:59;;;;;;;;;;;;;;;;;;5083484;28;1894;-77
2021/12/05 19:35:26;;;;;;;;;;;;;;;;;;5066870;28;1251;-77
2021/12/05 19:37:51;;;;;;;;;;;;;;;;;;5071384;28;1274;-78
2021/12/05 19:40:19;;;;;;;;;;;;;;;;;;5066000;28;1180;-78
2021/12/05 19:42:45;;;;;;;;;;;;;;;;;;5072271;28;1349;-78
2021/12/05 19:45:11;;;;;;;;;;;;;;;;;;5075695;28;1298;-77
2021/12/05 19:47:37;;;;;;;;;;;;;;;;;;5087589;28;1148;-78
2021/12/05 19:50:03;;;;;;;;;;;;;;;;;;5052555;28;1180;-77
2021/12/05 19:52:29;;;;;;;;;;;;;;;;;;5064356;28;1923;-77
2021/12/05 19:54:55;;;;;;;;;;;;;;;;;;5063199;28;1235;-78
2021/12/05 19:57:20;;;;;;;;;;;;;;;;;;5066777;28;1143;-77
2021/12/05 19:59:45;;;;;;;;;;;;;;;;;;5046037;28;1159;-77
2021/12/05 20:02:12;;;;;;;;;;;;;;;;;;5086303;28;1183;-77
2021/12/05 20:04:38;;;;;;;;;;;;;;;;;;5082026;28;1274;-77
2021/12/05 20:07:04;;;;;;;;;;;;;;;;;;5067217;28;1101;-77
2021/12/05 20:09:29;;;;;;;;;;;;;;;;;;5061906;28;1288;-77
2021/12/05 20:11:55;;;;;;;;;;;;;;;;;;5077405;28;1219;-77
2021/12/05 20:14:21;;;;;;;;;;;;;;;;;;5104920;28;1965;-77
2021/12/05 20:16:46;;;;;;;;;;;;;;;;;;5077080;28;1187;-77
2021/12/05 20:19:12;;;;;;;;;;;;;;;;;;5068838;28;1349;-77
2021/12/05 20:21:42;;;;;;;;;;;;;;;;;;5062438;28;1179;-77
2021/12/05 20:24:07;;;;;;;;;;;;;;;;;;5076302;28;1199;-77
2021/12/05 20:26:34;;;;;;;;;;;;;;;;;;5041714;28;1467;-76
2021/12/05 20:29:00;;;;;;;;;;;;;;;;;;5069020;28;1187;-77
2021/12/05 20:31:25;;;;;;;;;;;;;;;;;;5061204;28;1259;-77
2021/12/05 20:33:51;;;;;;;;;;;;;;;;;;5096727;28;1897;-77
2021/12/05 20:36:17;;;;;;;;;;;;;;;;;;5057265;28;1543;-77
2021/12/05 20:38:43;;;;;;;;;;;;;;;;;;5086348;28;1176;-78
2021/12/05 20:41:09;;;;;;;;;;;;;;;;;;5094038;28;1203;-77
2021/12/05 20:43:34;;;;;;;;;;;;;;;;;;5064912;28;1274;-77
2021/12/05 20:46:00;;;;;;;;;;;;;;;;;;5064076;28;1236;-77
2021/12/05 20:48:26;;;;;;;;;;;;;;;;;;5081407;28;1160;-77
2021/12/05 20:50:51;;;;;;;;;;;;;;;;;;5069906;28;1301;-77
2021/12/05 20:53:21;;;;;;;;;;;;;;;;;;5093093;28;1981;-77
2021/12/05 20:55:48;;;;;;;;;;;;;;;;;;5093019;28;1159;-77
2021/12/05 20:58:14;;;;;;;;;;;;;;;;;;5074879;28;1283;-77
2021/12/05 21:00:42;;;;;;;;;;;;;;;;;;5073555;28;1324;-76
2021/12/05 21:03:08;;;;;;;;;;;;;;;;;;5090720;28;1349;-79
2021/12/05 21:05:35;;;;;;;;;;;;;;;;;;5079062;28;1383;-77
2021/12/05 21:08:02;;;;;;;;;;;;;;;;;;5085701;28;1147;-77
2021/12/05 21:10:29;;;;;;;;;;;;;;;;;;5066349;28;1328;-77
2021/12/05 21:12:55;;;;;;;;;;;;;;;;;;5082265;28;1902;-77
2021/12/05 21:15:21;;;;;;;;;;;;;;;;;;5098190;28;1190;-77
2021/12/05 21:17:47;;;;;;;;;;;;;;;;;;5055043;28;1220;-77
2021/12/05 21:20:13;;;;;;;;;;;;;;;;;;5084343;28;1163;-77
2021/12/05 21:22:39;;;;;;;;;;;;;;;;;;5059128;28;1191;-77
2021/12/05 21:25:05;;;;;;;;;;;;;;;;;;5068305;28;1450;-77
2021/12/05 21:27:31;;;;;;;;;;;;;;;;;;5074370;28;1206;-77
2021/12/05 21:29:57;;;;;;;;;;;;;;;;;;5085167;28;1171;-76
2021/12/05 21:32:26;;;;;;;;;;;;;;;;;;5065505;28;1949;-76
2021/12/05 21:34:51;;;;;;;;;;;;;;;;;;5093416;28;1211;-76
2021/12/05 21:37:17;;;;;;;;;;;;;;;;;;5102376;28;1108;-76
2021/12/05 21:39:42;;;;;;;;;;;;;;;;;;5090665;28;1139;-76
2021/12/05 21:42:07;;;;;;;;;;;;;;;;;;5064261;28;1332;-78
2021/12/05 21:44:33;;;;;;;;;;;;;;;;;;5047216;28;1255;-77
2021/12/05 21:46:58;;;;;;;;;;;;;;;;;;5044783;28;1172;-77
2021/12/05 21:49:23;;;;;;;;;;;;;;;;;;5075308;28;1168;-77
2021/12/05 21:51:49;;;;;;;;;;;;;;;;;;5095953;28;1230;-77
2021/12/05 21:54:14;;;;;;;;;;;;;;;;;;5100143;28;1913;-77
2021/12/05 21:56:39;;;;;;;;;;;;;;;;;;5071700;28;1140;-76
2021/12/05 21:59:04;;;;;;;;;;;;;;;;;;5072742;28;1148;-76
2021/12/05 22:01:30;;;;;;;;;;;;;;;;;;5060214;28;1188;-76
2021/12/05 22:03:56;;;;;;;;;;;;;;;;;;5090125;28;1187;-76
2021/12/05 22:06:22;;;;;;;;;;;;;;;;;;5082875;28;1278;-76
2021/12/05 22:08:47;;;;;;;;;;;;;;;;;;5074569;28;1096;-76
2021/12/05 22:11:13;;;;;;;;;;;;;;;;;;5085518;28;1191;-77
2021/12/05 22:13:39;;;;;;;;;;;;;;;;;;5091068;28;1893;-77
2021/12/05 22:16:05;;;;;;;;;;;;;;;;;;5066021;28;1143;-77
2021/12/05 22:18:31;;;;;;;;;;;;;;;;;;5066499;28;1406;-77
2021/12/05 22:21:10;;;;;;;;;;;;;;;;;;5066321;28;1352;-76
2021/12/05 22:23:37;;;;;;;;;;;;;;;;;;5098146;28;1041;-76
2021/12/05 22:26:03;;;;;;;;;;;;;;;;;;5079766;28;1197;-76
2021/12/05 22:28:29;;;;;;;;;;;;;;;;;;5050388;28;1295;-77
2021/12/05 22:30:54;;;;;;;;;;;;;;;;;;5066519;28;1172;-76
2021/12/05 22:33:20;;;;;;;;;;;;;;;;;;5085927;28;1882;-77
2021/12/05 22:35:46;;;;;;;;;;;;;;;;;;5060366;28;1289;-77
2021/12/05 22:38:11;;;;;;;;;;;;;;;;;;5087507;28;1160;-77